sensor_id;sensor_type;location;lat;lon;timestamp;temperature;humidity
13436;DHT22;6790;49.520;8.504;2024-03-02T00:00:21;3.50;99.90
13436;DHT22;6790;49.520;8.504;2024-03-02T00:02:49;3.50;99.90
13436;DHT22;6790;49.520;8.504;2024-03-02T00:05:19;3.50;99.90
13436;DHT22;6790;49.520;8.504;2024-03-02T00:07:52;3.50;99.90
13436;DHT22;6790;49.520;8.504;2024-03-02T00:10:31;3.40;99.90
13436;DHT22;6790;49.520;8.504;2024-03-02T00:13:04;3.40;99.90
13436;DHT22;6790;49.520;8.504;2024-03-02T00:17:55;3.40;99.90
13436;DHT22;6790;49.520;8.504;2024-03-02T00:20:22;3.40;99.90
13436;DHT22;6790;49.520;8.504;2024-03-02T00:22:51;3.30;99.90
13436;DHT22;6790;49.520;8.504;2024-03-02T00:25:18;3.40;99.90
13436;DHT22;6790;49.520;8.504;2024-03-02T00:27:49;3.40;99.90
13436;DHT22;6790;49.520;8.504;2024-03-02T00:33:23;3.30;99.90
13436;DHT22;6790;49.520;8.504;2024-03-02T00:35:52;3.50;99.90
13436;DHT22;6790;49.520;8.504;2024-03-02T00:38:18;3.50;99.90
13436;DHT22;6790;49.520;8.504;2024-03-02T00:40:45;3.50;99.90
13436;DHT22;6790;49.520;8.504;2024-03-02T00:46:07;3.50;99.90
13436;DHT22;6790;49.520;8.504;2024-03-02T00:48:33;3.50;99.90
13436;DHT22;6790;49.520;8.504;2024-03-02T00:51:05;3.50;99.90
13436;DHT22;6790;49.520;8.504;2024-03-02T00:53:32;3.60;99.90
13436;DHT22;6790;49.520;8.504;2024-03-02T00:56:01;3.50;99.90
13436;DHT22;6790;49.520;8.504;2024-03-02T00:58:27;3.60;99.90
13436;DHT22;6790;49.520;8.504;2024-03-02T01:00:52;3.70;99.90
13436;DHT22;6790;49.520;8.504;2024-03-02T01:03:18;3.80;99.90
13436;DHT22;6790;49.520;8.504;2024-03-02T01:05:44;4.00;99.90
13436;DHT22;6790;49.520;8.504;2024-03-02T01:08:11;4.20;99.90
13436;DHT22;6790;49.520;8.504;2024-03-02T01:10:36;4.20;99.90
13436;DHT22;6790;49.520;8.504;2024-03-02T01:13:02;4.20;99.90
13436;DHT22;6790;49.520;8.504;2024-03-02T01:15:28;4.20;99.90
13436;DHT22;6790;49.520;8.504;2024-03-02T01:17:54;4.20;99.90
13436;DHT22;6790;49.520;8.504;2024-03-02T01:20:19;4.20;99.90
13436;DHT22;6790;49.520;8.504;2024-03-02T01:22:45;4.20;99.90
13436;DHT22;6790;49.520;8.504;2024-03-02T01:25:11;4.10;99.90
13436;DHT22;6790;49.520;8.504;2024-03-02T01:27:36;4.10;99.90
13436;DHT22;6790;49.520;8.504;2024-03-02T01:30:02;4.10;99.90
13436;DHT22;6790;49.520;8.504;2024-03-02T01:32:28;4.00;99.90
13436;DHT22;6790;49.520;8.504;2024-03-02T01:34:54;3.90;99.90
13436;DHT22;6790;49.520;8.504;2024-03-02T01:37:19;3.80;99.90
13436;DHT22;6790;49.520;8.504;2024-03-02T01:39:45;3.80;99.90
13436;DHT22;6790;49.520;8.504;2024-03-02T01:42:11;3.80;99.90
13436;DHT22;6790;49.520;8.504;2024-03-02T01:44:37;3.70;99.90
13436;DHT22;6790;49.520;8.504;2024-03-02T01:47:02;3.70;99.90
13436;DHT22;6790;49.520;8.504;2024-03-02T01:49:28;3.70;99.90
13436;DHT22;6790;49.520;8.504;2024-03-02T01:51:54;3.70;99.90
13436;DHT22;6790;49.520;8.504;2024-03-02T01:54:20;3.60;99.90
13436;DHT22;6790;49.520;8.504;2024-03-02T01:56:45;3.70;99.90
13436;DHT22;6790;49.520;8.504;2024-03-02T01:59:11;3.60;99.90
13436;DHT22;6790;49.520;8.504;2024-03-02T02:01:38;3.70;99.90
13436;DHT22;6790;49.520;8.504;2024-03-02T02:04:04;3.60;99.90
13436;DHT22;6790;49.520;8.504;2024-03-02T02:06:32;3.50;99.90
13436;DHT22;6790;49.520;8.504;2024-03-02T02:08:58;3.40;99.90
13436;DHT22;6790;49.520;8.504;2024-03-02T02:11:24;3.50;99.90
13436;DHT22;6790;49.520;8.504;2024-03-02T02:13:50;3.40;99.90
13436;DHT22;6790;49.520;8.504;2024-03-02T02:16:16;3.50;99.90
13436;DHT22;6790;49.520;8.504;2024-03-02T02:18:41;3.50;99.90
13436;DHT22;6790;49.520;8.504;2024-03-02T02:21:07;3.50;99.90
13436;DHT22;6790;49.520;8.504;2024-03-02T02:23:33;3.50;99.90
13436;DHT22;6790;49.520;8.504;2024-03-02T02:25:58;3.50;99.90
13436;DHT22;6790;49.520;8.504;2024-03-02T02:28:24;3.40;99.90
13436;DHT22;6790;49.520;8.504;2024-03-02T02:30:50;3.40;99.90
13436;DHT22;6790;49.520;8.504;2024-03-02T02:33:15;3.40;99.90
13436;DHT22;6790;49.520;8.504;2024-03-02T02:35:41;3.30;99.90
13436;DHT22;6790;49.520;8.504;2024-03-02T02:38:07;3.40;99.90
13436;DHT22;6790;49.520;8.504;2024-03-02T02:40:32;3.40;99.90
13436;DHT22;6790;49.520;8.504;2024-03-02T02:42:58;3.50;99.90
13436;DHT22;6790;49.520;8.504;2024-03-02T02:45:27;3.70;99.90
13436;DHT22;6790;49.520;8.504;2024-03-02T02:47:52;3.80;99.90
13436;DHT22;6790;49.520;8.504;2024-03-02T02:50:18;4.00;99.90
13436;DHT22;6790;49.520;8.504;2024-03-02T02:52:44;3.80;99.90
13436;DHT22;6790;49.520;8.504;2024-03-02T02:55:11;4.00;99.90
13436;DHT22;6790;49.520;8.504;2024-03-02T02:57:39;4.00;99.90
13436;DHT22;6790;49.520;8.504;2024-03-02T03:00:08;4.00;99.90
13436;DHT22;6790;49.520;8.504;2024-03-02T03:02:42;4.20;99.90
13436;DHT22;6790;49.520;8.504;2024-03-02T03:05:10;4.10;99.90
13436;DHT22;6790;49.520;8.504;2024-03-02T03:07:37;4.20;99.90
13436;DHT22;6790;49.520;8.504;2024-03-02T03:10:04;4.30;99.90
13436;DHT22;6790;49.520;8.504;2024-03-02T03:12:34;4.40;99.90
13436;DHT22;6790;49.520;8.504;2024-03-02T03:15:01;4.40;99.90
13436;DHT22;6790;49.520;8.504;2024-03-02T03:17:29;4.50;99.90
13436;DHT22;6790;49.520;8.504;2024-03-02T03:19:55;4.50;99.90
13436;DHT22;6790;49.520;8.504;2024-03-02T03:22:21;4.60;99.90
13436;DHT22;6790;49.520;8.504;2024-03-02T03:24:47;4.40;99.90
13436;DHT22;6790;49.520;8.504;2024-03-02T03:27:12;4.20;99.90
13436;DHT22;6790;49.520;8.504;2024-03-02T03:29:38;4.20;99.90
13436;DHT22;6790;49.520;8.504;2024-03-02T03:32:04;4.30;99.90
13436;DHT22;6790;49.520;8.504;2024-03-02T03:34:35;4.10;99.90
13436;DHT22;6790;49.520;8.504;2024-03-02T03:37:01;4.00;99.90
13436;DHT22;6790;49.520;8.504;2024-03-02T03:39:28;3.90;99.90
13436;DHT22;6790;49.520;8.504;2024-03-02T03:41:56;3.80;99.90
13436;DHT22;6790;49.520;8.504;2024-03-02T03:44:22;3.80;99.90
13436;DHT22;6790;49.520;8.504;2024-03-02T03:46:48;3.80;99.90
13436;DHT22;6790;49.520;8.504;2024-03-02T03:49:13;3.80;99.90
13436;DHT22;6790;49.520;8.504;2024-03-02T03:51:39;3.70;99.90
13436;DHT22;6790;49.520;8.504;2024-03-02T03:54:05;3.70;99.90
13436;DHT22;6790;49.520;8.504;2024-03-02T03:56:30;3.80;99.90
13436;DHT22;6790;49.520;8.504;2024-03-02T03:58:56;3.60;99.90
13436;DHT22;6790;49.520;8.504;2024-03-02T04:01:22;3.50;99.90
13436;DHT22;6790;49.520;8.504;2024-03-02T04:03:48;3.50;99.90
13436;DHT22;6790;49.520;8.504;2024-03-02T04:06:14;3.40;99.90
13436;DHT22;6790;49.520;8.504;2024-03-02T04:08:41;3.40;99.90
13436;DHT22;6790;49.520;8.504;2024-03-02T04:11:07;3.50;99.90
13436;DHT22;6790;49.520;8.504;2024-03-02T04:13:33;3.50;99.90
13436;DHT22;6790;49.520;8.504;2024-03-02T04:15:59;3.60;99.90
13436;DHT22;6790;49.520;8.504;2024-03-02T04:18:24;3.70;99.90
13436;DHT22;6790;49.520;8.504;2024-03-02T04:20:50;3.50;99.90
13436;DHT22;6790;49.520;8.504;2024-03-02T04:23:16;3.60;99.90
13436;DHT22;6790;49.520;8.504;2024-03-02T04:25:41;3.50;99.90
13436;DHT22;6790;49.520;8.504;2024-03-02T04:28:07;3.50;99.90
13436;DHT22;6790;49.520;8.504;2024-03-02T04:30:33;3.50;99.90
13436;DHT22;6790;49.520;8.504;2024-03-02T04:32:59;3.70;99.90
13436;DHT22;6790;49.520;8.504;2024-03-02T04:35:24;4.00;99.90
13436;DHT22;6790;49.520;8.504;2024-03-02T04:37:51;3.90;99.90
13436;DHT22;6790;49.520;8.504;2024-03-02T04:40:16;4.00;99.90
13436;DHT22;6790;49.520;8.504;2024-03-02T04:42:42;4.00;99.90
13436;DHT22;6790;49.520;8.504;2024-03-02T04:45:08;4.30;99.90
13436;DHT22;6790;49.520;8.504;2024-03-02T04:47:34;4.30;99.90
13436;DHT22;6790;49.520;8.504;2024-03-02T04:50:00;4.60;99.90
13436;DHT22;6790;49.520;8.504;2024-03-02T04:52:25;4.60;99.90
13436;DHT22;6790;49.520;8.504;2024-03-02T04:54:51;4.70;99.90
13436;DHT22;6790;49.520;8.504;2024-03-02T04:57:35;4.60;99.90
13436;DHT22;6790;49.520;8.504;2024-03-02T05:00:01;4.50;99.90
13436;DHT22;6790;49.520;8.504;2024-03-02T05:02:27;4.40;99.90
13436;DHT22;6790;49.520;8.504;2024-03-02T05:04:52;4.40;99.90
13436;DHT22;6790;49.520;8.504;2024-03-02T05:07:18;4.50;99.90
13436;DHT22;6790;49.520;8.504;2024-03-02T05:09:43;4.40;99.90
13436;DHT22;6790;49.520;8.504;2024-03-02T05:12:10;4.50;99.90
13436;DHT22;6790;49.520;8.504;2024-03-02T05:14:55;4.40;99.90
13436;DHT22;6790;49.520;8.504;2024-03-02T05:17:21;4.40;99.90
13436;DHT22;6790;49.520;8.504;2024-03-02T05:19:47;4.60;99.90
13436;DHT22;6790;49.520;8.504;2024-03-02T05:22:13;4.60;99.90
13436;DHT22;6790;49.520;8.504;2024-03-02T05:24:39;4.60;99.90
13436;DHT22;6790;49.520;8.504;2024-03-02T05:27:04;4.60;99.90
13436;DHT22;6790;49.520;8.504;2024-03-02T05:29:31;4.70;99.90
13436;DHT22;6790;49.520;8.504;2024-03-02T05:31:57;4.50;99.90
13436;DHT22;6790;49.520;8.504;2024-03-02T05:34:23;4.50;99.90
13436;DHT22;6790;49.520;8.504;2024-03-02T05:36:48;4.40;99.90
13436;DHT22;6790;49.520;8.504;2024-03-02T05:39:14;4.40;99.90
13436;DHT22;6790;49.520;8.504;2024-03-02T05:41:39;4.40;99.90
13436;DHT22;6790;49.520;8.504;2024-03-02T05:44:05;4.30;99.90
13436;DHT22;6790;49.520;8.504;2024-03-02T05:46:31;4.40;99.90
13436;DHT22;6790;49.520;8.504;2024-03-02T05:48:57;4.40;99.90
13436;DHT22;6790;49.520;8.504;2024-03-02T05:51:23;4.50;99.90
13436;DHT22;6790;49.520;8.504;2024-03-02T05:53:49;4.30;99.90
13436;DHT22;6790;49.520;8.504;2024-03-02T05:56:15;4.10;99.90
13436;DHT22;6790;49.520;8.504;2024-03-02T05:58:41;3.90;99.90
13436;DHT22;6790;49.520;8.504;2024-03-02T06:01:25;3.80;99.90
13436;DHT22;6790;49.520;8.504;2024-03-02T06:03:55;3.70;99.90
13436;DHT22;6790;49.520;8.504;2024-03-02T06:06:22;3.70;99.90
13436;DHT22;6790;49.520;8.504;2024-03-02T06:08:48;3.80;99.90
13436;DHT22;6790;49.520;8.504;2024-03-02T06:11:14;3.80;99.90
13436;DHT22;6790;49.520;8.504;2024-03-02T06:13:39;3.70;99.90
13436;DHT22;6790;49.520;8.504;2024-03-02T06:16:05;3.90;99.90
13436;DHT22;6790;49.520;8.504;2024-03-02T06:18:31;3.90;99.90
13436;DHT22;6790;49.520;8.504;2024-03-02T06:20:57;3.90;99.90
13436;DHT22;6790;49.520;8.504;2024-03-02T06:23:22;4.00;99.90
13436;DHT22;6790;49.520;8.504;2024-03-02T06:25:48;4.10;99.90
13436;DHT22;6790;49.520;8.504;2024-03-02T06:28:14;4.20;99.90
13436;DHT22;6790;49.520;8.504;2024-03-02T06:30:42;4.20;99.90
13436;DHT22;6790;49.520;8.504;2024-03-02T06:33:11;4.20;99.90
13436;DHT22;6790;49.520;8.504;2024-03-02T06:35:37;4.40;99.90
13436;DHT22;6790;49.520;8.504;2024-03-02T06:38:03;4.30;99.90
13436;DHT22;6790;49.520;8.504;2024-03-02T06:40:29;4.30;99.90
13436;DHT22;6790;49.520;8.504;2024-03-02T06:42:55;4.10;99.90
13436;DHT22;6790;49.520;8.504;2024-03-02T06:45:20;4.00;99.90
13436;DHT22;6790;49.520;8.504;2024-03-02T06:47:46;4.00;99.90
13436;DHT22;6790;49.520;8.504;2024-03-02T06:50:12;3.90;99.90
13436;DHT22;6790;49.520;8.504;2024-03-02T06:52:37;3.90;99.90
13436;DHT22;6790;49.520;8.504;2024-03-02T06:55:04;3.90;99.90
13436;DHT22;6790;49.520;8.504;2024-03-02T06:57:30;3.80;99.90
13436;DHT22;6790;49.520;8.504;2024-03-02T06:59:56;3.80;99.90
13436;DHT22;6790;49.520;8.504;2024-03-02T07:02:24;3.80;99.90
13436;DHT22;6790;49.520;8.504;2024-03-02T07:04:52;3.90;99.90
13436;DHT22;6790;49.520;8.504;2024-03-02T07:07:18;4.00;99.90
13436;DHT22;6790;49.520;8.504;2024-03-02T07:09:44;4.20;99.90
13436;DHT22;6790;49.520;8.504;2024-03-02T07:12:10;4.40;99.90
13436;DHT22;6790;49.520;8.504;2024-03-02T07:14:35;4.50;99.90
13436;DHT22;6790;49.520;8.504;2024-03-02T07:17:20;4.70;99.90
13436;DHT22;6790;49.520;8.504;2024-03-02T07:19:46;4.90;99.90
13436;DHT22;6790;49.520;8.504;2024-03-02T07:22:12;4.90;99.90
13436;DHT22;6790;49.520;8.504;2024-03-02T07:24:41;5.00;99.90
13436;DHT22;6790;49.520;8.504;2024-03-02T07:27:08;5.00;99.90
13436;DHT22;6790;49.520;8.504;2024-03-02T07:29:35;5.10;99.90
13436;DHT22;6790;49.520;8.504;2024-03-02T07:32:01;5.20;99.90
13436;DHT22;6790;49.520;8.504;2024-03-02T07:34:26;5.40;99.90
13436;DHT22;6790;49.520;8.504;2024-03-02T07:36:53;5.70;99.90
13436;DHT22;6790;49.520;8.504;2024-03-02T07:39:18;5.90;99.90
13436;DHT22;6790;49.520;8.504;2024-03-02T07:41:45;6.20;99.90
13436;DHT22;6790;49.520;8.504;2024-03-02T07:44:11;6.40;99.90
13436;DHT22;6790;49.520;8.504;2024-03-02T07:46:41;6.70;99.90
13436;DHT22;6790;49.520;8.504;2024-03-02T07:49:07;6.90;99.90
13436;DHT22;6790;49.520;8.504;2024-03-02T07:51:33;7.20;99.90
13436;DHT22;6790;49.520;8.504;2024-03-02T07:53:59;7.30;99.90
13436;DHT22;6790;49.520;8.504;2024-03-02T07:56:24;7.40;99.90
13436;DHT22;6790;49.520;8.504;2024-03-02T07:58:50;7.60;99.90
13436;DHT22;6790;49.520;8.504;2024-03-02T08:01:16;7.80;99.90
13436;DHT22;6790;49.520;8.504;2024-03-02T08:03:43;8.00;99.90
13436;DHT22;6790;49.520;8.504;2024-03-02T08:06:14;8.20;99.90
13436;DHT22;6790;49.520;8.504;2024-03-02T08:08:42;8.30;99.90
13436;DHT22;6790;49.520;8.504;2024-03-02T08:11:08;8.40;99.90
13436;DHT22;6790;49.520;8.504;2024-03-02T08:13:34;8.70;99.90
13436;DHT22;6790;49.520;8.504;2024-03-02T08:16:00;9.20;99.90
13436;DHT22;6790;49.520;8.504;2024-03-02T08:18:28;9.30;99.90
13436;DHT22;6790;49.520;8.504;2024-03-02T08:20:54;9.60;99.90
13436;DHT22;6790;49.520;8.504;2024-03-02T08:23:20;9.60;99.90
13436;DHT22;6790;49.520;8.504;2024-03-02T08:25:46;9.60;99.90
13436;DHT22;6790;49.520;8.504;2024-03-02T08:28:12;9.70;99.90
13436;DHT22;6790;49.520;8.504;2024-03-02T08:30:38;9.80;99.90
13436;DHT22;6790;49.520;8.504;2024-03-02T08:33:04;9.90;99.90
13436;DHT22;6790;49.520;8.504;2024-03-02T08:35:31;9.90;99.90
13436;DHT22;6790;49.520;8.504;2024-03-02T08:38:01;10.00;99.90
13436;DHT22;6790;49.520;8.504;2024-03-02T08:40:28;10.00;99.90
13436;DHT22;6790;49.520;8.504;2024-03-02T08:42:54;10.00;99.90
13436;DHT22;6790;49.520;8.504;2024-03-02T08:45:20;10.10;99.90
13436;DHT22;6790;49.520;8.504;2024-03-02T08:47:46;10.10;99.90
13436;DHT22;6790;49.520;8.504;2024-03-02T08:50:12;10.10;99.90
13436;DHT22;6790;49.520;8.504;2024-03-02T08:52:38;10.10;99.90
13436;DHT22;6790;49.520;8.504;2024-03-02T08:55:04;10.20;99.90
13436;DHT22;6790;49.520;8.504;2024-03-02T08:57:31;10.10;99.90
13436;DHT22;6790;49.520;8.504;2024-03-02T08:59:57;10.10;99.90
13436;DHT22;6790;49.520;8.504;2024-03-02T09:02:23;10.20;99.90
13436;DHT22;6790;49.520;8.504;2024-03-02T09:04:49;10.30;99.90
13436;DHT22;6790;49.520;8.504;2024-03-02T09:07:15;10.30;99.90
13436;DHT22;6790;49.520;8.504;2024-03-02T09:09:40;10.50;99.90
13436;DHT22;6790;49.520;8.504;2024-03-02T09:12:07;10.70;99.90
13436;DHT22;6790;49.520;8.504;2024-03-02T09:14:33;11.00;99.90
13436;DHT22;6790;49.520;8.504;2024-03-02T09:17:00;11.20;99.90
13436;DHT22;6790;49.520;8.504;2024-03-02T09:19:26;11.10;99.90
13436;DHT22;6790;49.520;8.504;2024-03-02T09:21:51;11.20;99.90
13436;DHT22;6790;49.520;8.504;2024-03-02T09:24:17;12.10;99.90
13436;DHT22;6790;49.520;8.504;2024-03-02T09:26:42;12.30;99.90
13436;DHT22;6790;49.520;8.504;2024-03-02T09:29:08;12.30;99.90
13436;DHT22;6790;49.520;8.504;2024-03-02T09:31:42;12.00;99.90
13436;DHT22;6790;49.520;8.504;2024-03-02T09:34:08;11.90;99.90
13436;DHT22;6790;49.520;8.504;2024-03-02T09:36:34;11.70;99.90
13436;DHT22;6790;49.520;8.504;2024-03-02T09:39:00;11.40;99.90
13436;DHT22;6790;49.520;8.504;2024-03-02T09:41:25;11.60;99.90
13436;DHT22;6790;49.520;8.504;2024-03-02T09:43:51;11.90;99.90
13436;DHT22;6790;49.520;8.504;2024-03-02T09:46:18;12.10;99.90
13436;DHT22;6790;49.520;8.504;2024-03-02T09:48:44;12.00;99.90
13436;DHT22;6790;49.520;8.504;2024-03-02T09:51:11;12.00;99.90
13436;DHT22;6790;49.520;8.504;2024-03-02T09:53:39;12.20;99.90
13436;DHT22;6790;49.520;8.504;2024-03-02T09:56:05;12.20;99.90
13436;DHT22;6790;49.520;8.504;2024-03-02T09:58:31;12.30;99.90
13436;DHT22;6790;49.520;8.504;2024-03-02T10:00:57;12.30;99.90
13436;DHT22;6790;49.520;8.504;2024-03-02T10:03:26;12.60;99.90
13436;DHT22;6790;49.520;8.504;2024-03-02T10:05:54;12.60;99.90
13436;DHT22;6790;49.520;8.504;2024-03-02T10:08:20;12.60;99.90
13436;DHT22;6790;49.520;8.504;2024-03-02T10:10:45;12.70;99.90
13436;DHT22;6790;49.520;8.504;2024-03-02T10:13:12;12.80;99.90
13436;DHT22;6790;49.520;8.504;2024-03-02T10:15:40;12.90;99.90
13436;DHT22;6790;49.520;8.504;2024-03-02T10:18:10;12.90;99.90
13436;DHT22;6790;49.520;8.504;2024-03-02T10:20:37;12.80;99.90
13436;DHT22;6790;49.520;8.504;2024-03-02T10:23:16;13.10;99.90
13436;DHT22;6790;49.520;8.504;2024-03-02T10:25:43;13.10;99.90
13436;DHT22;6790;49.520;8.504;2024-03-02T10:28:10;13.20;99.90
13436;DHT22;6790;49.520;8.504;2024-03-02T10:30:37;13.30;99.90
13436;DHT22;6790;49.520;8.504;2024-03-02T10:33:03;13.40;99.90
13436;DHT22;6790;49.520;8.504;2024-03-02T10:35:29;13.30;99.90
13436;DHT22;6790;49.520;8.504;2024-03-02T10:37:59;13.30;99.90
13436;DHT22;6790;49.520;8.504;2024-03-02T10:40:26;13.60;99.90
13436;DHT22;6790;49.520;8.504;2024-03-02T10:42:52;13.80;99.90
13436;DHT22;6790;49.520;8.504;2024-03-02T10:45:20;14.00;99.90
13436;DHT22;6790;49.520;8.504;2024-03-02T10:47:49;14.30;99.90
13436;DHT22;6790;49.520;8.504;2024-03-02T10:50:15;14.50;99.90
13436;DHT22;6790;49.520;8.504;2024-03-02T10:52:41;14.80;99.90
13436;DHT22;6790;49.520;8.504;2024-03-02T10:55:09;14.90;99.90
13436;DHT22;6790;49.520;8.504;2024-03-02T10:57:45;14.80;99.90
13436;DHT22;6790;49.520;8.504;2024-03-02T11:00:17;14.90;99.90
13436;DHT22;6790;49.520;8.504;2024-03-02T11:02:56;14.60;99.90
13436;DHT22;6790;49.520;8.504;2024-03-02T11:05:28;14.50;99.90
13436;DHT22;6790;49.520;8.504;2024-03-02T11:08:08;14.60;99.90
13436;DHT22;6790;49.520;8.504;2024-03-02T11:10:40;14.70;99.90
13436;DHT22;6790;49.520;8.504;2024-03-02T11:13:12;14.90;99.90
13436;DHT22;6790;49.520;8.504;2024-03-02T11:15:40;14.70;99.90
13436;DHT22;6790;49.520;8.504;2024-03-02T11:18:09;14.90;99.90
13436;DHT22;6790;49.520;8.504;2024-03-02T11:21:00;14.90;99.90
13436;DHT22;6790;49.520;8.504;2024-03-02T11:23:34;14.90;99.90
13436;DHT22;6790;49.520;8.504;2024-03-02T11:26:19;15.00;99.90
13436;DHT22;6790;49.520;8.504;2024-03-02T11:28:46;15.00;99.90
13436;DHT22;6790;49.520;8.504;2024-03-02T11:31:11;14.90;99.90
13436;DHT22;6790;49.520;8.504;2024-03-02T11:33:37;14.70;99.90
13436;DHT22;6790;49.520;8.504;2024-03-02T11:36:03;14.80;99.90
13436;DHT22;6790;49.520;8.504;2024-03-02T11:38:33;14.90;99.90
13436;DHT22;6790;49.520;8.504;2024-03-02T11:41:03;15.20;99.90
13436;DHT22;6790;49.520;8.504;2024-03-02T11:43:32;15.10;99.90
13436;DHT22;6790;49.520;8.504;2024-03-02T11:46:04;15.10;99.90
13436;DHT22;6790;49.520;8.504;2024-03-02T11:48:32;15.00;99.90
13436;DHT22;6790;49.520;8.504;2024-03-02T11:50:59;15.40;99.90
13436;DHT22;6790;49.520;8.504;2024-03-02T11:53:28;15.40;99.90
13436;DHT22;6790;49.520;8.504;2024-03-02T11:55:58;15.50;99.90
13436;DHT22;6790;49.520;8.504;2024-03-02T11:58:24;15.70;99.90
13436;DHT22;6790;49.520;8.504;2024-03-02T12:00:55;15.50;96.90
13436;DHT22;6790;49.520;8.504;2024-03-02T12:03:23;15.50;97.30
13436;DHT22;6790;49.520;8.504;2024-03-02T12:05:54;15.30;97.70
13436;DHT22;6790;49.520;8.504;2024-03-02T12:08:21;15.30;98.20
13436;DHT22;6790;49.520;8.504;2024-03-02T12:11:01;15.60;99.90
13436;DHT22;6790;49.520;8.504;2024-03-02T12:13:27;15.50;99.90
13436;DHT22;6790;49.520;8.504;2024-03-02T12:15:54;15.50;98.50
13436;DHT22;6790;49.520;8.504;2024-03-02T12:18:21;15.10;99.20
13436;DHT22;6790;49.520;8.504;2024-03-02T12:20:49;15.30;99.90
13436;DHT22;6790;49.520;8.504;2024-03-02T12:23:18;15.60;99.90
13436;DHT22;6790;49.520;8.504;2024-03-02T12:25:45;15.60;98.80
13436;DHT22;6790;49.520;8.504;2024-03-02T12:28:11;15.50;96.40
13436;DHT22;6790;49.520;8.504;2024-03-02T12:30:37;15.60;97.00
13436;DHT22;6790;49.520;8.504;2024-03-02T12:33:03;15.50;97.90
13436;DHT22;6790;49.520;8.504;2024-03-02T12:35:29;15.60;93.90
13436;DHT22;6790;49.520;8.504;2024-03-02T12:37:55;15.70;96.30
13436;DHT22;6790;49.520;8.504;2024-03-02T12:40:21;16.00;97.50
13436;DHT22;6790;49.520;8.504;2024-03-02T12:42:48;15.60;93.60
13436;DHT22;6790;49.520;8.504;2024-03-02T12:45:15;15.50;95.10
13436;DHT22;6790;49.520;8.504;2024-03-02T12:47:42;15.70;93.00
13436;DHT22;6790;49.520;8.504;2024-03-02T12:50:09;15.90;95.30
13436;DHT22;6790;49.520;8.504;2024-03-02T12:52:35;15.80;93.20
13436;DHT22;6790;49.520;8.504;2024-03-02T12:55:02;15.90;86.70
13436;DHT22;6790;49.520;8.504;2024-03-02T12:57:31;15.90;88.40
13436;DHT22;6790;49.520;8.504;2024-03-02T13:00:02;15.90;90.10
13436;DHT22;6790;49.520;8.504;2024-03-02T13:02:35;15.70;90.50
13436;DHT22;6790;49.520;8.504;2024-03-02T13:05:02;15.80;83.00
13436;DHT22;6790;49.520;8.504;2024-03-02T13:07:28;15.60;89.40
13436;DHT22;6790;49.520;8.504;2024-03-02T13:09:55;15.60;90.40
13436;DHT22;6790;49.520;8.504;2024-03-02T13:12:22;15.90;90.20
13436;DHT22;6790;49.520;8.504;2024-03-02T13:14:52;16.00;84.30
13436;DHT22;6790;49.520;8.504;2024-03-02T13:17:19;15.90;85.60
13436;DHT22;6790;49.520;8.504;2024-03-02T13:20:11;15.70;91.00
13436;DHT22;6790;49.520;8.504;2024-03-02T13:22:39;15.60;87.50
13436;DHT22;6790;49.520;8.504;2024-03-02T13:25:05;15.50;91.00
13436;DHT22;6790;49.520;8.504;2024-03-02T13:27:32;15.60;89.50
13436;DHT22;6790;49.520;8.504;2024-03-02T13:29:58;15.60;87.50
13436;DHT22;6790;49.520;8.504;2024-03-02T13:32:24;15.90;89.20
13436;DHT22;6790;49.520;8.504;2024-03-02T13:34:51;16.10;87.50
13436;DHT22;6790;49.520;8.504;2024-03-02T13:37:17;16.10;88.30
13436;DHT22;6790;49.520;8.504;2024-03-02T13:39:43;15.90;92.00
13436;DHT22;6790;49.520;8.504;2024-03-02T13:42:12;15.80;90.70
13436;DHT22;6790;49.520;8.504;2024-03-02T13:44:40;15.70;90.50
13436;DHT22;6790;49.520;8.504;2024-03-02T13:47:06;15.70;93.50
13436;DHT22;6790;49.520;8.504;2024-03-02T13:49:32;15.90;88.80
13436;DHT22;6790;49.520;8.504;2024-03-02T13:52:09;16.00;92.20
13436;DHT22;6790;49.520;8.504;2024-03-02T13:54:46;16.00;91.90
13436;DHT22;6790;49.520;8.504;2024-03-02T13:57:12;16.10;93.00
13436;DHT22;6790;49.520;8.504;2024-03-02T13:59:39;15.90;93.00
13436;DHT22;6790;49.520;8.504;2024-03-02T14:02:06;16.00;94.00
13436;DHT22;6790;49.520;8.504;2024-03-02T14:04:35;16.20;93.70
13436;DHT22;6790;49.520;8.504;2024-03-02T14:07:02;16.00;97.00
13436;DHT22;6790;49.520;8.504;2024-03-02T14:09:28;16.10;94.80
13436;DHT22;6790;49.520;8.504;2024-03-02T14:11:54;16.00;96.90
13436;DHT22;6790;49.520;8.504;2024-03-02T14:14:21;16.50;96.90
13436;DHT22;6790;49.520;8.504;2024-03-02T14:16:47;16.70;97.00
13436;DHT22;6790;49.520;8.504;2024-03-02T14:19:12;17.10;93.80
13436;DHT22;6790;49.520;8.504;2024-03-02T14:21:39;16.40;93.00
13436;DHT22;6790;49.520;8.504;2024-03-02T14:24:05;16.20;93.40
13436;DHT22;6790;49.520;8.504;2024-03-02T14:26:32;16.00;94.70
13436;DHT22;6790;49.520;8.504;2024-03-02T14:28:59;16.30;95.10
13436;DHT22;6790;49.520;8.504;2024-03-02T14:31:27;16.40;96.40
13436;DHT22;6790;49.520;8.504;2024-03-02T14:33:53;17.60;89.90
13436;DHT22;6790;49.520;8.504;2024-03-02T14:36:19;16.80;92.10
13436;DHT22;6790;49.520;8.504;2024-03-02T14:38:45;16.40;93.00
13436;DHT22;6790;49.520;8.504;2024-03-02T14:41:11;16.10;93.50
13436;DHT22;6790;49.520;8.504;2024-03-02T14:43:38;16.10;94.90
13436;DHT22;6790;49.520;8.504;2024-03-02T14:46:04;16.10;94.60
13436;DHT22;6790;49.520;8.504;2024-03-02T14:48:30;16.10;95.30
13436;DHT22;6790;49.520;8.504;2024-03-02T14:50:55;16.00;94.80
13436;DHT22;6790;49.520;8.504;2024-03-02T14:53:21;15.80;96.60
13436;DHT22;6790;49.520;8.504;2024-03-02T14:55:47;15.70;97.60
13436;DHT22;6790;49.520;8.504;2024-03-02T14:58:12;15.60;96.20
13436;DHT22;6790;49.520;8.504;2024-03-02T15:00:38;15.50;95.40
13436;DHT22;6790;49.520;8.504;2024-03-02T15:03:04;15.50;96.70
13436;DHT22;6790;49.520;8.504;2024-03-02T15:05:33;15.40;96.80
13436;DHT22;6790;49.520;8.504;2024-03-02T15:07:58;15.40;98.10
13436;DHT22;6790;49.520;8.504;2024-03-02T15:10:27;15.40;98.20
13436;DHT22;6790;49.520;8.504;2024-03-02T15:12:52;15.20;96.10
13436;DHT22;6790;49.520;8.504;2024-03-02T15:15:19;15.20;98.80
13436;DHT22;6790;49.520;8.504;2024-03-02T15:17:44;15.00;99.30
13436;DHT22;6790;49.520;8.504;2024-03-02T15:20:10;14.80;99.90
13436;DHT22;6790;49.520;8.504;2024-03-02T15:22:36;14.80;99.90
13436;DHT22;6790;49.520;8.504;2024-03-02T15:25:02;14.70;99.90
13436;DHT22;6790;49.520;8.504;2024-03-02T15:27:28;14.50;99.90
13436;DHT22;6790;49.520;8.504;2024-03-02T15:29:54;14.50;99.90
13436;DHT22;6790;49.520;8.504;2024-03-02T15:32:38;14.40;99.90
13436;DHT22;6790;49.520;8.504;2024-03-02T15:35:05;14.30;99.90
13436;DHT22;6790;49.520;8.504;2024-03-02T15:37:31;14.30;99.90
13436;DHT22;6790;49.520;8.504;2024-03-02T15:39:57;14.10;99.90
13436;DHT22;6790;49.520;8.504;2024-03-02T15:42:24;14.10;99.90
13436;DHT22;6790;49.520;8.504;2024-03-02T15:44:49;14.00;99.90
13436;DHT22;6790;49.520;8.504;2024-03-02T15:47:16;13.90;99.90
13436;DHT22;6790;49.520;8.504;2024-03-02T15:49:42;13.80;99.90
13436;DHT22;6790;49.520;8.504;2024-03-02T15:52:08;13.70;99.90
13436;DHT22;6790;49.520;8.504;2024-03-02T15:54:33;13.70;99.90
13436;DHT22;6790;49.520;8.504;2024-03-02T15:56:59;13.60;99.90
13436;DHT22;6790;49.520;8.504;2024-03-02T15:59:25;13.50;99.90
13436;DHT22;6790;49.520;8.504;2024-03-02T16:01:51;13.30;99.90